sensor_id;sensor_type;location;lat;lon;timestamp;pressure;altitude;pressure_sealevel;temperature;humidity
13456;BME280;6800;50.940;6.940;2023-04-24T00:03:07;99425.78;;;22.42;37.14
13456;BME280;6800;50.940;6.940;2023-04-24T00:07:09;99426.47;;;22.23;37.74
13456;BME280;6800;50.940;6.940;2023-04-24T00:11:10;99426.25;;;21.97;38.19
13456;BME280;6800;50.940;6.940;2023-04-24T00:15:12;99428.16;;;22.03;38.42
13456;BME280;6800;50.940;6.940;2023-04-24T00:19:13;99428.28;;;22.43;37.64
13456;BME280;6800;50.940;6.940;2023-04-24T00:23:14;99414.16;;;22.43;37.19
13456;BME280;6800;50.940;6.940;2023-04-24T00:27:16;99416.53;;;22.59;37.79
13456;BME280;6800;50.940;6.940;2023-04-24T00:31:17;99410.47;;;22.44;37.20
13456;BME280;6800;50.940;6.940;2023-04-24T00:35:19;99408.09;;;22.56;37.59
13456;BME280;6800;50.940;6.940;2023-04-24T00:39:21;99417.19;;;22.40;37.96
13456;BME280;6800;50.940;6.940;2023-04-24T00:43:24;99414.88;;;22.58;37.56
13456;BME280;6800;50.940;6.940;2023-04-24T00:47:26;99403.72;;;22.48;37.57
13456;BME280;6800;50.940;6.940;2023-04-24T00:51:28;99397.72;;;22.61;37.05
13456;BME280;6800;50.940;6.940;2023-04-24T00:55:31;99406.75;;;22.38;37.43
13456;BME280;6800;50.940;6.940;2023-04-24T00:59:33;99411.13;;;22.52;37.07
13456;BME280;6800;50.940;6.940;2023-04-24T01:03:34;99410.72;;;22.21;37.06
13456;BME280;6800;50.940;6.940;2023-04-24T01:07:39;99410.34;;;22.24;36.76
13456;BME280;6800;50.940;6.940;2023-04-24T01:11:44;99410.31;;;21.97;36.23
13456;BME280;6800;50.940;6.940;2023-04-24T01:15:45;99406.88;;;21.60;36.97
13456;BME280;6800;50.940;6.940;2023-04-24T01:19:47;99406.19;;;21.94;35.86
13456;BME280;6800;50.940;6.940;2023-04-24T01:23:48;99407.47;;;22.26;35.34
13456;BME280;6800;50.940;6.940;2023-04-24T01:27:50;99415.56;;;21.90;35.92
13456;BME280;6800;50.940;6.940;2023-04-24T01:31:52;99434.16;;;21.90;36.27
13456;BME280;6800;50.940;6.940;2023-04-24T01:35:54;99442.38;;;21.24;35.94
13456;BME280;6800;50.940;6.940;2023-04-24T01:39:56;99448.00;;;21.14;35.53
13456;BME280;6800;50.940;6.940;2023-04-24T01:43:57;99430.94;;;21.23;35.09
13456;BME280;6800;50.940;6.940;2023-04-24T01:48:00;99447.22;;;20.76;35.70
13456;BME280;6800;50.940;6.940;2023-04-24T01:52:01;99444.03;;;21.25;35.01
13456;BME280;6800;50.940;6.940;2023-04-24T01:56:03;99444.94;;;20.59;36.32
13456;BME280;6800;50.940;6.940;2023-04-24T02:00:05;99440.44;;;20.59;35.93
13456;BME280;6800;50.940;6.940;2023-04-24T02:04:08;99445.94;;;19.98;37.38
13456;BME280;6800;50.940;6.940;2023-04-24T02:08:10;99449.13;;;20.68;36.24
13456;BME280;6800;50.940;6.940;2023-04-24T02:12:11;99448.22;;;19.56;38.30
13456;BME280;6800;50.940;6.940;2023-04-24T02:16:13;99446.34;;;20.09;36.84
13456;BME280;6800;50.940;6.940;2023-04-24T02:20:14;99449.31;;;19.30;38.97
13456;BME280;6800;50.940;6.940;2023-04-24T02:24:15;99459.75;;;19.93;37.96
13456;BME280;6800;50.940;6.940;2023-04-24T02:28:17;99458.53;;;19.96;37.58
13456;BME280;6800;50.940;6.940;2023-04-24T02:32:18;99458.00;;;19.55;38.89
13456;BME280;6800;50.940;6.940;2023-04-24T02:36:20;99459.81;;;19.55;38.49
13456;BME280;6800;50.940;6.940;2023-04-24T02:40:22;99453.56;;;19.48;38.63
13456;BME280;6800;50.940;6.940;2023-04-24T02:44:23;99466.03;;;19.92;37.97
13456;BME280;6800;50.940;6.940;2023-04-24T02:48:24;99467.66;;;19.71;38.50
13456;BME280;6800;50.940;6.940;2023-04-24T02:52:26;99477.03;;;19.81;38.23
13456;BME280;6800;50.940;6.940;2023-04-24T02:56:27;99483.53;;;20.01;37.71
13456;BME280;6800;50.940;6.940;2023-04-24T03:00:28;99485.53;;;20.22;37.82
13456;BME280;6800;50.940;6.940;2023-04-24T03:04:31;99490.41;;;20.33;37.07
13456;BME280;6800;50.940;6.940;2023-04-24T03:08:33;99488.22;;;20.37;37.07
13456;BME280;6800;50.940;6.940;2023-04-24T03:12:35;99488.78;;;20.47;36.95
13456;BME280;6800;50.940;6.940;2023-04-24T03:16:36;99494.59;;;20.50;37.09
13456;BME280;6800;50.940;6.940;2023-04-24T03:20:38;99494.53;;;19.90;37.90
13456;BME280;6800;50.940;6.940;2023-04-24T03:24:39;99502.34;;;20.06;37.25
13456;BME280;6800;50.940;6.940;2023-04-24T03:28:41;99503.09;;;20.23;37.07
13456;BME280;6800;50.940;6.940;2023-04-24T03:32:43;99508.84;;;20.04;37.53
13456;BME280;6800;50.940;6.940;2023-04-24T03:36:45;99501.41;;;19.99;37.51
13456;BME280;6800;50.940;6.940;2023-04-24T03:40:48;99502.78;;;20.41;36.71
13456;BME280;6800;50.940;6.940;2023-04-24T03:44:50;99497.81;;;19.92;37.30
13456;BME280;6800;50.940;6.940;2023-04-24T03:48:51;99506.09;;;19.89;37.00
13456;BME280;6800;50.940;6.940;2023-04-24T03:52:52;99506.78;;;19.61;37.89
13456;BME280;6800;50.940;6.940;2023-04-24T03:56:54;99502.53;;;19.82;37.38
13456;BME280;6800;50.940;6.940;2023-04-24T04:00:55;99501.94;;;20.17;36.74
13456;BME280;6800;50.940;6.940;2023-04-24T04:04:59;99505.56;;;19.94;37.30
13456;BME280;6800;50.940;6.940;2023-04-24T04:09:00;99504.69;;;19.79;37.33
13456;BME280;6800;50.940;6.940;2023-04-24T04:13:02;99503.75;;;20.17;36.61
13456;BME280;6800;50.940;6.940;2023-04-24T04:17:03;99509.84;;;20.03;36.89
13456;BME280;6800;50.940;6.940;2023-04-24T04:21:05;99506.28;;;20.10;36.13
13456;BME280;6800;50.940;6.940;2023-04-24T04:25:06;99513.31;;;20.03;36.56
13456;BME280;6800;50.940;6.940;2023-04-24T04:29:08;99510.38;;;19.68;37.49
13456;BME280;6800;50.940;6.940;2023-04-24T04:33:11;99508.69;;;19.28;37.89
13456;BME280;6800;50.940;6.940;2023-04-24T04:37:13;99516.41;;;19.84;37.18
13456;BME280;6800;50.940;6.940;2023-04-24T04:41:15;99519.00;;;20.15;36.81
13456;BME280;6800;50.940;6.940;2023-04-24T04:45:18;99515.19;;;19.95;36.96
13456;BME280;6800;50.940;6.940;2023-04-24T04:49:19;99527.59;;;19.94;37.39
13456;BME280;6800;50.940;6.940;2023-04-24T04:53:22;99523.97;;;20.18;36.92
13456;BME280;6800;50.940;6.940;2023-04-24T04:57:24;99526.63;;;19.87;37.23
13456;BME280;6800;50.940;6.940;2023-04-24T05:01:25;99526.75;;;20.02;37.19
13456;BME280;6800;50.940;6.940;2023-04-24T05:05:29;99531.53;;;19.76;37.37
13456;BME280;6800;50.940;6.940;2023-04-24T05:09:30;99531.88;;;20.26;36.88
13456;BME280;6800;50.940;6.940;2023-04-24T05:13:31;99522.53;;;19.85;37.23
13456;BME280;6800;50.940;6.940;2023-04-24T05:17:41;99541.56;;;20.11;37.90
13456;BME280;6800;50.940;6.940;2023-04-24T05:21:42;99538.13;;;20.02;38.06
13456;BME280;6800;50.940;6.940;2023-04-24T05:25:44;99556.28;;;20.13;37.48
13456;BME280;6800;50.940;6.940;2023-04-24T05:29:47;99552.38;;;20.55;36.89
13456;BME280;6800;50.940;6.940;2023-04-24T05:33:48;99555.72;;;20.49;36.85
13456;BME280;6800;50.940;6.940;2023-04-24T05:37:50;99554.31;;;20.61;36.12
13456;BME280;6800;50.940;6.940;2023-04-24T05:41:51;99565.09;;;20.37;36.94
13456;BME280;6800;50.940;6.940;2023-04-24T05:45:54;99574.28;;;20.71;36.13
13456;BME280;6800;50.940;6.940;2023-04-24T05:49:56;99563.97;;;20.54;36.70
13456;BME280;6800;50.940;6.940;2023-04-24T05:53:58;99564.16;;;20.52;37.34
13456;BME280;6800;50.940;6.940;2023-04-24T05:58:04;99559.72;;;20.45;37.22
13456;BME280;6800;50.940;6.940;2023-04-24T06:02:07;99564.44;;;20.57;37.00
13456;BME280;6800;50.940;6.940;2023-04-24T06:06:08;99564.97;;;20.30;37.43
13456;BME280;6800;50.940;6.940;2023-04-24T06:10:10;99575.53;;;20.38;37.12
13456;BME280;6800;50.940;6.940;2023-04-24T06:14:12;99578.59;;;20.50;37.33
13456;BME280;6800;50.940;6.940;2023-04-24T06:18:13;99572.06;;;20.07;38.18
13456;BME280;6800;50.940;6.940;2023-04-24T06:22:15;99576.09;;;20.26;38.44
13456;BME280;6800;50.940;6.940;2023-04-24T06:26:16;99576.66;;;20.13;39.18
13456;BME280;6800;50.940;6.940;2023-04-24T06:30:17;99582.16;;;20.11;39.62
13456;BME280;6800;50.940;6.940;2023-04-24T06:34:19;99587.88;;;19.92;39.77
13456;BME280;6800;50.940;6.940;2023-04-24T06:38:20;99585.06;;;19.94;40.11
13456;BME280;6800;50.940;6.940;2023-04-24T06:42:22;99598.81;;;19.89;40.79
13456;BME280;6800;50.940;6.940;2023-04-24T06:46:23;99608.28;;;19.29;42.75
13456;BME280;6800;50.940;6.940;2023-04-24T06:50:27;99606.25;;;19.55;42.33
13456;BME280;6800;50.940;6.940;2023-04-24T06:54:29;99602.50;;;19.41;42.49
13456;BME280;6800;50.940;6.940;2023-04-24T06:58:31;99596.53;;;19.31;43.34
13456;BME280;6800;50.940;6.940;2023-04-24T07:02:32;99601.63;;;19.49;43.09
13456;BME280;6800;50.940;6.940;2023-04-24T07:06:34;99599.50;;;19.36;43.52
13456;BME280;6800;50.940;6.940;2023-04-24T07:10:37;99603.72;;;19.62;43.72
13456;BME280;6800;50.940;6.940;2023-04-24T07:14:39;99613.44;;;19.14;44.64
13456;BME280;6800;50.940;6.940;2023-04-24T07:18:41;99610.50;;;18.85;45.35
13456;BME280;6800;50.940;6.940;2023-04-24T07:22:42;99614.41;;;19.13;44.67
13456;BME280;6800;50.940;6.940;2023-04-24T07:26:43;99633.28;;;18.94;45.43
13456;BME280;6800;50.940;6.940;2023-04-24T07:30:45;99633.91;;;19.36;45.71
13456;BME280;6800;50.940;6.940;2023-04-24T07:34:46;99637.44;;;18.89;46.29
13456;BME280;6800;50.940;6.940;2023-04-24T07:38:47;99641.22;;;18.86;46.21
13456;BME280;6800;50.940;6.940;2023-04-24T07:42:49;99668.47;;;18.54;46.90
13456;BME280;6800;50.940;6.940;2023-04-24T07:46:51;99672.50;;;18.25;46.72
13456;BME280;6800;50.940;6.940;2023-04-24T07:50:53;99668.72;;;18.35;46.30
13456;BME280;6800;50.940;6.940;2023-04-24T07:54:54;99678.94;;;17.80;47.15
13456;BME280;6800;50.940;6.940;2023-04-24T07:58:59;99707.22;;;17.45;47.90
13456;BME280;6800;50.940;6.940;2023-04-24T08:03:02;99695.84;;;17.96;47.62
13456;BME280;6800;50.940;6.940;2023-04-24T08:07:03;99697.91;;;17.84;47.69
13456;BME280;6800;50.940;6.940;2023-04-24T08:11:05;99702.69;;;17.80;46.90
13456;BME280;6800;50.940;6.940;2023-04-24T08:15:06;99724.03;;;17.61;48.02
13456;BME280;6800;50.940;6.940;2023-04-24T08:19:08;99723.81;;;17.37;47.46
13456;BME280;6800;50.940;6.940;2023-04-24T08:23:10;99747.13;;;16.71;49.31
13456;BME280;6800;50.940;6.940;2023-04-24T08:27:11;99752.25;;;17.08;47.93
13456;BME280;6800;50.940;6.940;2023-04-24T08:31:12;99763.03;;;17.14;48.14
13456;BME280;6800;50.940;6.940;2023-04-24T08:35:14;99756.97;;;17.40;47.88
13456;BME280;6800;50.940;6.940;2023-04-24T08:39:17;99759.19;;;16.91;47.23
13456;BME280;6800;50.940;6.940;2023-04-24T08:43:21;99765.28;;;17.09;47.69
13456;BME280;6800;50.940;6.940;2023-04-24T08:47:23;99774.31;;;17.42;47.25
13456;BME280;6800;50.940;6.940;2023-04-24T08:51:26;99774.25;;;16.81;48.06
13456;BME280;6800;50.940;6.940;2023-04-24T08:55:29;99783.66;;;16.29;49.25
13456;BME280;6800;50.940;6.940;2023-04-24T08:59:31;99786.09;;;16.77;49.17
13456;BME280;6800;50.940;6.940;2023-04-24T09:03:33;99797.75;;;16.75;49.32
13456;BME280;6800;50.940;6.940;2023-04-24T09:07:35;99809.81;;;16.77;48.97
13456;BME280;6800;50.940;6.940;2023-04-24T09:11:37;99810.75;;;16.76;49.82
13456;BME280;6800;50.940;6.940;2023-04-24T09:15:40;99809.56;;;16.71;49.13
13456;BME280;6800;50.940;6.940;2023-04-24T09:19:42;99830.81;;;17.92;47.84
13456;BME280;6800;50.940;6.940;2023-04-24T09:23:43;99833.94;;;17.35;48.80
13456;BME280;6800;50.940;6.940;2023-04-24T09:27:45;99845.22;;;17.98;47.82
13456;BME280;6800;50.940;6.940;2023-04-24T09:31:47;99857.25;;;17.75;48.36
13456;BME280;6800;50.940;6.940;2023-04-24T09:35:50;99869.56;;;18.35;47.45
13456;BME280;6800;50.940;6.940;2023-04-24T09:40:18;99878.78;;;18.31;47.91
13456;BME280;6800;50.940;6.940;2023-04-24T09:44:22;99883.69;;;18.26;47.67
13456;BME280;6800;50.940;6.940;2023-04-24T09:48:30;99891.44;;;18.45;47.85
13456;BME280;6800;50.940;6.940;2023-04-24T09:52:32;99886.75;;;18.65;46.92
13456;BME280;6800;50.940;6.940;2023-04-24T09:56:34;99893.22;;;19.12;47.24
13456;BME280;6800;50.940;6.940;2023-04-24T10:00:35;99901.28;;;19.44;46.45
13456;BME280;6800;50.940;6.940;2023-04-24T10:04:37;99902.94;;;19.54;46.17
13456;BME280;6800;50.940;6.940;2023-04-24T10:08:39;99916.25;;;19.28;46.42
13456;BME280;6800;50.940;6.940;2023-04-24T10:12:40;99910.28;;;19.26;45.98
13456;BME280;6800;50.940;6.940;2023-04-24T10:16:43;99914.72;;;19.59;45.41
13456;BME280;6800;50.940;6.940;2023-04-24T10:20:45;99919.84;;;20.17;44.59
13456;BME280;6800;50.940;6.940;2023-04-24T10:24:47;99933.44;;;19.98;45.38
13456;BME280;6800;50.940;6.940;2023-04-24T10:28:52;99928.13;;;20.14;44.94
13456;BME280;6800;50.940;6.940;2023-04-24T10:32:53;99930.59;;;19.83;45.51
13456;BME280;6800;50.940;6.940;2023-04-24T10:36:56;99932.44;;;20.39;44.23
13456;BME280;6800;50.940;6.940;2023-04-24T10:41:11;99934.25;;;19.90;44.12
13456;BME280;6800;50.940;6.940;2023-04-24T10:45:22;99936.56;;;20.58;43.39
13456;BME280;6800;50.940;6.940;2023-04-24T10:49:29;99949.00;;;19.93;44.58
13456;BME280;6800;50.940;6.940;2023-04-24T10:53:31;99953.13;;;20.52;43.14
13456;BME280;6800;50.940;6.940;2023-04-24T10:57:35;99957.63;;;20.11;43.14
13456;BME280;6800;50.940;6.940;2023-04-24T11:01:38;99951.38;;;20.99;42.61
13456;BME280;6800;50.940;6.940;2023-04-24T11:09:58;99962.00;;;20.83;41.32
13456;BME280;6800;50.940;6.940;2023-04-24T11:14:00;99969.03;;;20.60;42.02
13456;BME280;6800;50.940;6.940;2023-04-24T11:18:02;99972.56;;;20.44;42.09
13456;BME280;6800;50.940;6.940;2023-04-24T11:22:04;99975.56;;;21.04;41.52
13456;BME280;6800;50.940;6.940;2023-04-24T11:26:21;99985.97;;;20.59;42.30
13456;BME280;6800;50.940;6.940;2023-04-24T11:30:22;99989.66;;;21.51;40.49
13456;BME280;6800;50.940;6.940;2023-04-24T11:34:24;99990.91;;;21.33;41.76
13456;BME280;6800;50.940;6.940;2023-04-24T11:38:26;99996.91;;;21.27;40.89
13456;BME280;6800;50.940;6.940;2023-04-24T11:42:28;99995.47;;;21.00;41.29
13456;BME280;6800;50.940;6.940;2023-04-24T11:46:34;99998.66;;;21.73;39.81
13456;BME280;6800;50.940;6.940;2023-04-24T11:50:36;100006.13;;;22.97;38.80
13456;BME280;6800;50.940;6.940;2023-04-24T11:54:37;99999.34;;;23.24;37.90
13456;BME280;6800;50.940;6.940;2023-04-24T11:58:41;100010.31;;;22.03;39.56
13456;BME280;6800;50.940;6.940;2023-04-24T12:02:42;100005.06;;;21.87;39.76
13456;BME280;6800;50.940;6.940;2023-04-24T12:07:03;100015.19;;;22.74;38.40
13456;BME280;6800;50.940;6.940;2023-04-24T12:11:07;100008.72;;;23.20;37.54
13456;BME280;6800;50.940;6.940;2023-04-24T12:15:09;100027.25;;;21.71;38.32
13456;BME280;6800;50.940;6.940;2023-04-24T12:19:10;100013.72;;;22.11;37.01
13456;BME280;6800;50.940;6.940;2023-04-24T12:23:12;100018.31;;;21.64;38.69
13456;BME280;6800;50.940;6.940;2023-04-24T12:27:19;100023.66;;;22.17;38.01
13456;BME280;6800;50.940;6.940;2023-04-24T12:31:21;100032.78;;;22.37;37.53
13456;BME280;6800;50.940;6.940;2023-04-24T12:35:26;100028.81;;;21.80;37.94
13456;BME280;6800;50.940;6.940;2023-04-24T12:39:28;100038.66;;;22.10;37.96
13456;BME280;6800;50.940;6.940;2023-04-24T12:43:29;100039.81;;;22.53;37.16
13456;BME280;6800;50.940;6.940;2023-04-24T12:47:32;100037.09;;;22.61;35.75
13456;BME280;6800;50.940;6.940;2023-04-24T12:51:33;100047.09;;;21.52;37.39
13456;BME280;6800;50.940;6.940;2023-04-24T12:55:35;100052.81;;;21.33;37.70
13456;BME280;6800;50.940;6.940;2023-04-24T12:59:37;100049.41;;;22.17;36.84
13456;BME280;6800;50.940;6.940;2023-04-24T13:03:40;100053.94;;;21.77;36.61
13456;BME280;6800;50.940;6.940;2023-04-24T13:07:42;100060.56;;;22.12;37.14
13456;BME280;6800;50.940;6.940;2023-04-24T13:11:43;100057.78;;;22.06;36.74
13456;BME280;6800;50.940;6.940;2023-04-24T13:15:44;100057.41;;;21.47;36.93
13456;BME280;6800;50.940;6.940;2023-04-24T13:19:46;100063.94;;;22.29;34.95
13456;BME280;6800;50.940;6.940;2023-04-24T13:23:47;100062.50;;;21.96;35.49
13456;BME280;6800;50.940;6.940;2023-04-24T13:27:49;100071.31;;;21.96;35.48
13456;BME280;6800;50.940;6.940;2023-04-24T13:31:50;100066.19;;;22.17;34.33
13456;BME280;6800;50.940;6.940;2023-04-24T13:35:52;100056.72;;;22.15;34.58
13456;BME280;6800;50.940;6.940;2023-04-24T13:39:53;100058.34;;;22.01;34.47
13456;BME280;6800;50.940;6.940;2023-04-24T13:43:55;100059.38;;;22.15;33.85
13456;BME280;6800;50.940;6.940;2023-04-24T13:47:59;100058.75;;;22.58;33.38
13456;BME280;6800;50.940;6.940;2023-04-24T13:52:01;100057.56;;;21.93;34.70
13456;BME280;6800;50.940;6.940;2023-04-24T13:56:03;100067.16;;;21.94;34.76
13456;BME280;6800;50.940;6.940;2023-04-24T14:00:05;100058.72;;;21.51;35.42
13456;BME280;6800;50.940;6.940;2023-04-24T14:04:07;100073.50;;;21.93;34.29
13456;BME280;6800;50.940;6.940;2023-04-24T14:08:09;100066.47;;;22.90;33.44
13456;BME280;6800;50.940;6.940;2023-04-24T14:12:10;100059.97;;;22.02;33.86
13456;BME280;6800;50.940;6.940;2023-04-24T14:16:12;100074.75;;;22.27;33.96
13456;BME280;6800;50.940;6.940;2023-04-24T14:20:13;100079.97;;;22.66;33.05
13456;BME280;6800;50.940;6.940;2023-04-24T14:24:15;100073.00;;;22.20;33.22
13456;BME280;6800;50.940;6.940;2023-04-24T14:28:20;100076.88;;;21.32;34.70
13456;BME280;6800;50.940;6.940;2023-04-24T14:32:22;100080.72;;;22.07;32.61
13456;BME280;6800;50.940;6.940;2023-04-24T14:36:23;100076.06;;;22.54;32.08
13456;BME280;6800;50.940;6.940;2023-04-24T14:40:25;100070.50;;;22.41;32.45
13456;BME280;6800;50.940;6.940;2023-04-24T14:44:29;100066.97;;;22.71;31.29
13456;BME280;6800;50.940;6.940;2023-04-24T14:48:31;100080.91;;;22.05;32.08
13456;BME280;6800;50.940;6.940;2023-04-24T14:52:32;100083.63;;;22.20;31.69
13456;BME280;6800;50.940;6.940;2023-04-24T14:56:33;100081.84;;;22.58;31.42
13456;BME280;6800;50.940;6.940;2023-04-24T15:00:35;100077.84;;;22.39;31.65
13456;BME280;6800;50.940;6.940;2023-04-24T15:04:38;100082.06;;;22.93;30.33
13456;BME280;6800;50.940;6.940;2023-04-24T15:08:40;100081.03;;;22.57;31.62
13456;BME280;6800;50.940;6.940;2023-04-24T15:12:41;100094.66;;;22.99;31.57
13456;BME280;6800;50.940;6.940;2023-04-24T15:16:42;100084.13;;;22.69;31.44
13456;BME280;6800;50.940;6.940;2023-04-24T15:20:44;100096.00;;;22.58;31.95
13456;BME280;6800;50.940;6.940;2023-04-24T15:24:45;100092.50;;;23.32;30.83
13456;BME280;6800;50.940;6.940;2023-04-24T15:28:47;100102.25;;;23.40;30.44
13456;BME280;6800;50.940;6.940;2023-04-24T15:32:48;100096.47;;;22.62;31.15
13456;BME280;6800;50.940;6.940;2023-04-24T15:36:50;100097.91;;;23.09;30.54
13456;BME280;6800;50.940;6.940;2023-04-24T15:40:51;100088.69;;;23.26;31.01
13456;BME280;6800;50.940;6.940;2023-04-24T15:44:52;100094.66;;;22.62;31.58
13456;BME280;6800;50.940;6.940;2023-04-24T15:48:54;100086.19;;;22.81;30.85
13456;BME280;6800;50.940;6.940;2023-04-24T15:52:55;100092.28;;;23.04;30.03
13456;BME280;6800;50.940;6.940;2023-04-24T15:56:57;100089.34;;;22.31;31.99
13456;BME280;6800;50.940;6.940;2023-04-24T16:00:58;100099.25;;;22.45;31.39
13456;BME280;6800;50.940;6.940;2023-04-24T16:05:00;100091.28;;;22.45;31.64
13456;BME280;6800;50.940;6.940;2023-04-24T16:09:01;100095.88;;;22.74;30.88
13456;BME280;6800;50.940;6.940;2023-04-24T16:13:04;100093.88;;;22.31;30.97
13456;BME280;6800;50.940;6.940;2023-04-24T16:17:05;100108.16;;;22.30;31.07
13456;BME280;6800;50.940;6.940;2023-04-24T16:21:07;100097.50;;;22.98;30.15
13456;BME280;6800;50.940;6.940;2023-04-24T16:25:09;100101.25;;;23.03;30.32
13456;BME280;6800;50.940;6.940;2023-04-24T16:29:11;100100.38;;;22.28;31.18
13456;BME280;6800;50.940;6.940;2023-04-24T16:33:12;100097.34;;;22.54;30.78
13456;BME280;6800;50.940;6.940;2023-04-24T16:37:13;100092.56;;;22.72;30.92
13456;BME280;6800;50.940;6.940;2023-04-24T16:41:15;100102.84;;;22.52;30.77
13456;BME280;6800;50.940;6.940;2023-04-24T16:45:16;100102.41;;;21.88;31.75
13456;BME280;6800;50.940;6.940;2023-04-24T16:49:18;100103.09;;;22.66;30.77
13456;BME280;6800;50.940;6.940;2023-04-24T16:53:19;100102.41;;;21.88;31.81
13456;BME280;6800;50.940;6.940;2023-04-24T16:57:21;100108.13;;;22.07;30.82
13456;BME280;6800;50.940;6.940;2023-04-24T17:01:23;100102.00;;;22.07;30.98
13456;BME280;6800;50.940;6.940;2023-04-24T17:05:26;100109.66;;;22.32;30.23
13456;BME280;6800;50.940;6.940;2023-04-24T17:09:27;100107.19;;;22.00;31.20
13456;BME280;6800;50.940;6.940;2023-04-24T17:13:29;100115.03;;;22.47;30.16
13456;BME280;6800;50.940;6.940;2023-04-24T17:17:30;100123.06;;;22.39;30.38
13456;BME280;6800;50.940;6.940;2023-04-24T17:21:32;100122.59;;;22.05;31.13
13456;BME280;6800;50.940;6.940;2023-04-24T17:25:34;100118.25;;;22.12;30.81
13456;BME280;6800;50.940;6.940;2023-04-24T17:29:35;100128.69;;;21.74;31.37
13456;BME280;6800;50.940;6.940;2023-04-24T17:33:37;100122.69;;;21.81;31.00
13456;BME280;6800;50.940;6.940;2023-04-24T17:37:38;100130.06;;;21.62;30.91
13456;BME280;6800;50.940;6.940;2023-04-24T17:41:39;100135.63;;;21.92;30.76
13456;BME280;6800;50.940;6.940;2023-04-24T17:45:41;100135.97;;;21.89;30.92
13456;BME280;6800;50.940;6.940;2023-04-24T17:49:42;100141.16;;;21.82;30.44
13456;BME280;6800;50.940;6.940;2023-04-24T17:53:44;100140.97;;;21.84;31.22
13456;BME280;6800;50.940;6.940;2023-04-24T17:57:45;100143.66;;;21.67;31.19
13456;BME280;6800;50.940;6.940;2023-04-24T18:01:47;100154.94;;;21.77;32.19
13456;BME280;6800;50.940;6.940;2023-04-24T18:05:48;100149.69;;;21.53;32.60
13456;BME280;6800;50.940;6.940;2023-04-24T18:09:50;100149.31;;;21.64;32.67
13456;BME280;6800;50.940;6.940;2023-04-24T18:13:51;100154.06;;;21.93;32.70
13456;BME280;6800;50.940;6.940;2023-04-24T18:17:53;100160.31;;;21.53;32.00
13456;BME280;6800;50.940;6.940;2023-04-24T18:21:54;100157.53;;;21.31;31.87
13456;BME280;6800;50.940;6.940;2023-04-24T18:25:56;100164.38;;;21.09;31.65
13456;BME280;6800;50.940;6.940;2023-04-24T18:29:57;100162.69;;;21.24;32.02
13456;BME280;6800;50.940;6.940;2023-04-24T18:33:59;100175.94;;;21.00;32.69
13456;BME280;6800;50.940;6.940;2023-04-24T18:38:00;100180.06;;;20.70;33.18
13456;BME280;6800;50.940;6.940;2023-04-24T18:42:02;100193.13;;;20.40;33.57
13456;BME280;6800;50.940;6.940;2023-04-24T18:46:03;100197.47;;;20.65;33.65
13456;BME280;6800;50.940;6.940;2023-04-24T18:50:05;100202.72;;;20.33;34.12
13456;BME280;6800;50.940;6.940;2023-04-24T18:54:07;100199.13;;;20.66;33.80
13456;BME280;6800;50.940;6.940;2023-04-24T18:58:08;100207.72;;;20.52;33.90
13456;BME280;6800;50.940;6.940;2023-04-24T19:02:10;100209.66;;;20.00;34.90
13456;BME280;6800;50.940;6.940;2023-04-24T19:06:12;100216.19;;;20.13;34.59
13456;BME280;6800;50.940;6.940;2023-04-24T19:10:13;100220.56;;;19.63;35.54
13456;BME280;6800;50.940;6.940;2023-04-24T19:14:14;100223.78;;;19.75;35.21
13456;BME280;6800;50.940;6.940;2023-04-24T19:18:16;100228.09;;;19.76;35.42
13456;BME280;6800;50.940;6.940;2023-04-24T19:22:18;100226.50;;;19.83;35.17
13456;BME280;6800;50.940;6.940;2023-04-24T19:26:21;100235.53;;;19.72;35.50
13456;BME280;6800;50.940;6.940;2023-04-24T19:30:24;100239.56;;;19.59;36.25
13456;BME280;6800;50.940;6.940;2023-04-24T19:34:25;100239.25;;;19.62;36.31
13456;BME280;6800;50.940;6.940;2023-04-24T19:38:27;100242.53;;;19.81;36.14
13456;BME280;6800;50.940;6.940;2023-04-24T19:42:28;100247.94;;;19.72;36.18
13456;BME280;6800;50.940;6.940;2023-04-24T19:46:45;100246.47;;;19.77;36.26
13456;BME280;6800;50.940;6.940;2023-04-24T19:50:47;100246.47;;;19.77;36.03
13456;BME280;6800;50.940;6.940;2023-04-24T19:54:48;100245.50;;;19.78;35.72
13456;BME280;6800;50.940;6.940;2023-04-24T19:58:52;100245.97;;;19.48;36.21
13456;BME280;6800;50.940;6.940;2023-04-24T20:02:54;100243.22;;;19.91;35.70
13456;BME280;6800;50.940;6.940;2023-04-24T20:06:56;100236.97;;;19.92;35.78
13456;BME280;6800;50.940;6.940;2023-04-24T20:10:57;100245.53;;;19.86;35.32
13456;BME280;6800;50.940;6.940;2023-04-24T20:14:59;100240.03;;;19.80;36.47
13456;BME280;6800;50.940;6.940;2023-04-24T20:19:01;100243.19;;;19.83;36.14
13456;BME280;6800;50.940;6.940;2023-04-24T20:23:02;100256.97;;;19.87;36.40
13456;BME280;6800;50.940;6.940;2023-04-24T20:27:05;100248.19;;;19.61;36.80
13456;BME280;6800;50.940;6.940;2023-04-24T20:31:06;100250.00;;;19.60;36.50
13456;BME280;6800;50.940;6.940;2023-04-24T20:35:08;100252.66;;;19.60;36.62
13456;BME280;6800;50.940;6.940;2023-04-24T20:39:10;100250.56;;;19.46;36.40
13456;BME280;6800;50.940;6.940;2023-04-24T20:43:12;100255.41;;;19.33;37.11
13456;BME280;6800;50.940;6.940;2023-04-24T20:47:13;100258.00;;;19.42;36.99
13456;BME280;6800;50.940;6.940;2023-04-24T20:51:15;100257.00;;;19.26;36.95
13456;BME280;6800;50.940;6.940;2023-04-24T20:55:17;100255.28;;;19.17;37.47
13456;BME280;6800;50.940;6.940;2023-04-24T20:59:18;100252.09;;;19.13;37.58
13456;BME280;6800;50.940;6.940;2023-04-24T21:03:20;100273.25;;;19.13;37.42
13456;BME280;6800;50.940;6.940;2023-04-24T21:07:22;100259.44;;;19.02;38.13
13456;BME280;6800;50.940;6.940;2023-04-24T21:11:23;100264.34;;;18.97;37.75
13456;BME280;6800;50.940;6.940;2023-04-24T21:15:24;100267.50;;;18.83;38.18
13456;BME280;6800;50.940;6.940;2023-04-24T21:19:26;100266.59;;;18.74;38.16
13456;BME280;6800;50.940;6.940;2023-04-24T21:23:27;100268.75;;;18.61;38.42
13456;BME280;6800;50.940;6.940;2023-04-24T21:27:29;100264.47;;;18.78;38.15
13456;BME280;6800;50.940;6.940;2023-04-24T21:31:30;100253.50;;;18.55;38.45
13456;BME280;6800;50.940;6.940;2023-04-24T21:35:32;100258.78;;;18.55;38.63